sensor_id;sensor_type;location;lat;lon;timestamp;P1;P2;P0
76049;PMS7003;64967;50.234;19.224;2023-04-29T00:01:16;12.00;10.25;9.50
76049;PMS7003;64967;50.234;19.224;2023-04-29T00:03:45;14.25;12.50;11.25
76049;PMS7003;64967;50.234;19.224;2023-04-29T00:06:37;13.25;12.25;10.25
76049;PMS7003;64967;50.234;19.224;2023-04-29T00:09:23;14.50;12.50;11.00
76049;PMS7003;64967;50.234;19.224;2023-04-29T00:12:13;18.00;16.25;12.00
76049;PMS7003;64967;50.234;19.224;2023-04-29T00:14:55;18.75;13.25;10.00
76049;PMS7003;64967;50.234;19.224;2023-04-29T00:17:46;17.50;13.25;9.75
76049;PMS7003;64967;50.234;19.224;2023-04-29T00:20:13;9.25;8.00;7.75
76049;PMS7003;64967;50.234;19.224;2023-04-29T00:22:40;9.75;9.00;6.00
76049;PMS7003;64967;50.234;19.224;2023-04-29T00:25:08;9.00;7.75;7.00
76049;PMS7003;64967;50.234;19.224;2023-04-29T00:27:35;14.00;10.75;8.75
76049;PMS7003;64967;50.234;19.224;2023-04-29T00:30:02;8.50;8.50;6.25
76049;PMS7003;64967;50.234;19.224;2023-04-29T00:32:29;10.75;10.25;8.50
76049;PMS7003;64967;50.234;19.224;2023-04-29T00:34:56;11.00;9.75;8.25
76049;PMS7003;64967;50.234;19.224;2023-04-29T00:37:23;14.25;11.50;9.25
76049;PMS7003;64967;50.234;19.224;2023-04-29T00:39:50;15.75;13.00;9.75
76049;PMS7003;64967;50.234;19.224;2023-04-29T00:42:17;10.25;8.00;5.00
76049;PMS7003;64967;50.234;19.224;2023-04-29T00:44:45;10.75;9.00;8.00
76049;PMS7003;64967;50.234;19.224;2023-04-29T00:47:12;11.75;10.50;8.00
76049;PMS7003;64967;50.234;19.224;2023-04-29T00:49:39;8.00;7.00;5.00
76049;PMS7003;64967;50.234;19.224;2023-04-29T00:52:06;9.00;9.00;8.00
76049;PMS7003;64967;50.234;19.224;2023-04-29T00:54:33;12.50;11.00;10.00
76049;PMS7003;64967;50.234;19.224;2023-04-29T00:57:01;12.00;11.00;9.25
76049;PMS7003;64967;50.234;19.224;2023-04-29T00:59:29;12.75;10.00;8.25
76049;PMS7003;64967;50.234;19.224;2023-04-29T01:01:58;18.25;17.00;14.00
76049;PMS7003;64967;50.234;19.224;2023-04-29T01:04:30;12.25;9.25;8.50
76049;PMS7003;64967;50.234;19.224;2023-04-29T01:07:17;12.75;12.25;10.00
76049;PMS7003;64967;50.234;19.224;2023-04-29T01:10:35;16.50;16.00;12.75
76049;PMS7003;64967;50.234;19.224;2023-04-29T01:13:48;23.25;18.00;14.75
76049;PMS7003;64967;50.234;19.224;2023-04-29T01:16:43;24.25;23.50;18.50
76049;PMS7003;64967;50.234;19.224;2023-04-29T01:22:22;16.00;15.75;10.50
76049;PMS7003;64967;50.234;19.224;2023-04-29T01:24:49;17.50;17.00;12.00
76049;PMS7003;64967;50.234;19.224;2023-04-29T01:38:22;13.50;11.75;8.75
76049;PMS7003;64967;50.234;19.224;2023-04-29T01:41:15;17.25;15.25;10.00
76049;PMS7003;64967;50.234;19.224;2023-04-29T01:43:49;15.00;12.25;10.00
76049;PMS7003;64967;50.234;19.224;2023-04-29T01:46:18;17.00;15.00;11.75
76049;PMS7003;64967;50.234;19.224;2023-04-29T01:48:45;20.25;17.75;13.50
76049;PMS7003;64967;50.234;19.224;2023-04-29T01:51:13;15.50;15.00;10.00
76049;PMS7003;64967;50.234;19.224;2023-04-29T01:53:40;20.00;17.50;13.00
76049;PMS7003;64967;50.234;19.224;2023-04-29T01:56:07;13.25;11.75;8.50
76049;PMS7003;64967;50.234;19.224;2023-04-29T01:58:34;12.00;11.50;10.00
76049;PMS7003;64967;50.234;19.224;2023-04-29T02:01:01;11.25;9.25;7.50
76049;PMS7003;64967;50.234;19.224;2023-04-29T02:03:28;10.50;9.00;8.00
76049;PMS7003;64967;50.234;19.224;2023-04-29T02:05:55;15.75;11.25;9.25
76049;PMS7003;64967;50.234;19.224;2023-04-29T02:08:23;9.75;9.00;7.00
76049;PMS7003;64967;50.234;19.224;2023-04-29T02:10:51;9.00;7.75;7.25
76049;PMS7003;64967;50.234;19.224;2023-04-29T02:13:21;14.25;11.75;9.50
76049;PMS7003;64967;50.234;19.224;2023-04-29T02:15:48;11.75;11.50;10.00
76049;PMS7003;64967;50.234;19.224;2023-04-29T02:18:15;10.75;9.50;8.75
76049;PMS7003;64967;50.234;19.224;2023-04-29T02:20:42;10.50;8.75;5.50
76049;PMS7003;64967;50.234;19.224;2023-04-29T02:23:09;17.25;14.75;9.75
76049;PMS7003;64967;50.234;19.224;2023-04-29T02:25:36;11.00;10.25;8.00
76049;PMS7003;64967;50.234;19.224;2023-04-29T02:28:03;15.75;15.75;12.50
76049;PMS7003;64967;50.234;19.224;2023-04-29T02:30:30;12.25;10.25;8.00
76049;PMS7003;64967;50.234;19.224;2023-04-29T02:32:57;8.00;8.00;7.25
76049;PMS7003;64967;50.234;19.224;2023-04-29T02:35:24;8.50;8.00;7.00
76049;PMS7003;64967;50.234;19.224;2023-04-29T02:37:51;10.75;10.50;9.00
76049;PMS7003;64967;50.234;19.224;2023-04-29T02:40:18;11.00;10.00;8.50
76049;PMS7003;64967;50.234;19.224;2023-04-29T02:42:45;7.75;7.75;6.00
76049;PMS7003;64967;50.234;19.224;2023-04-29T02:45:12;9.75;9.50;7.75
76049;PMS7003;64967;50.234;19.224;2023-04-29T02:47:39;11.00;10.50;8.75
76049;PMS7003;64967;50.234;19.224;2023-04-29T02:50:06;10.25;9.00;8.00
76049;PMS7003;64967;50.234;19.224;2023-04-29T02:52:33;11.00;11.00;9.00
76049;PMS7003;64967;50.234;19.224;2023-04-29T02:55:00;10.00;10.00;9.00
76049;PMS7003;64967;50.234;19.224;2023-04-29T02:57:27;7.50;7.50;6.50
76049;PMS7003;64967;50.234;19.224;2023-04-29T02:59:58;7.25;7.25;6.00
76049;PMS7003;64967;50.234;19.224;2023-04-29T03:02:25;7.50;7.50;5.00
76049;PMS7003;64967;50.234;19.224;2023-04-29T03:04:52;6.75;6.75;4.75
76049;PMS7003;64967;50.234;19.224;2023-04-29T03:07:19;4.00;4.00;3.75
76049;PMS7003;64967;50.234;19.224;2023-04-29T03:09:46;8.25;8.00;6.00
76049;PMS7003;64967;50.234;19.224;2023-04-29T03:12:13;8.25;7.25;6.00
76049;PMS7003;64967;50.234;19.224;2023-04-29T03:14:40;6.50;5.00;4.00
76049;PMS7003;64967;50.234;19.224;2023-04-29T03:17:08;5.00;4.25;4.00
76049;PMS7003;64967;50.234;19.224;2023-04-29T03:19:35;6.50;3.75;3.75
76049;PMS7003;64967;50.234;19.224;2023-04-29T03:22:02;6.50;4.75;4.25
76049;PMS7003;64967;50.234;19.224;2023-04-29T03:24:28;4.00;3.50;3.00
76049;PMS7003;64967;50.234;19.224;2023-04-29T03:26:55;4.50;4.50;3.50
76049;PMS7003;64967;50.234;19.224;2023-04-29T03:29:22;7.75;4.25;3.75
76049;PMS7003;64967;50.234;19.224;2023-04-29T03:31:49;3.00;3.00;2.50
76049;PMS7003;64967;50.234;19.224;2023-04-29T03:34:17;3.00;3.00;3.00
76049;PMS7003;64967;50.234;19.224;2023-04-29T03:36:44;4.00;2.50;2.00
76049;PMS7003;64967;50.234;19.224;2023-04-29T03:39:11;3.25;3.00;2.50
76049;PMS7003;64967;50.234;19.224;2023-04-29T03:41:38;3.00;3.00;3.00
76049;PMS7003;64967;50.234;19.224;2023-04-29T03:44:05;3.00;2.75;2.25
76049;PMS7003;64967;50.234;19.224;2023-04-29T03:46:32;3.75;3.75;3.00
76049;PMS7003;64967;50.234;19.224;2023-04-29T03:48:59;7.00;4.00;3.00
76049;PMS7003;64967;50.234;19.224;2023-04-29T03:51:26;7.50;7.50;6.00
76049;PMS7003;64967;50.234;19.224;2023-04-29T03:53:53;8.00;7.50;5.00
76049;PMS7003;64967;50.234;19.224;2023-04-29T03:56:23;9.50;8.00;7.00
76049;PMS7003;64967;50.234;19.224;2023-04-29T03:58:53;7.00;5.50;4.75
76049;PMS7003;64967;50.234;19.224;2023-04-29T04:01:20;9.75;8.25;6.00
76049;PMS7003;64967;50.234;19.224;2023-04-29T04:03:47;6.25;5.00;4.25
76049;PMS7003;64967;50.234;19.224;2023-04-29T04:06:15;5.00;4.00;3.00
76049;PMS7003;64967;50.234;19.224;2023-04-29T04:08:41;6.25;6.25;4.00
76049;PMS7003;64967;50.234;19.224;2023-04-29T04:11:08;5.50;4.25;4.00
76049;PMS7003;64967;50.234;19.224;2023-04-29T04:13:35;4.75;4.75;3.25
76049;PMS7003;64967;50.234;19.224;2023-04-29T04:16:02;5.00;4.00;3.00
76049;PMS7003;64967;50.234;19.224;2023-04-29T04:18:30;7.00;4.50;3.25
76049;PMS7003;64967;50.234;19.224;2023-04-29T04:20:57;6.50;5.00;4.00
76049;PMS7003;64967;50.234;19.224;2023-04-29T04:23:24;4.00;4.00;4.00
76049;PMS7003;64967;50.234;19.224;2023-04-29T04:25:51;5.00;5.00;5.00
76049;PMS7003;64967;50.234;19.224;2023-04-29T04:28:19;6.00;5.75;4.00
76049;PMS7003;64967;50.234;19.224;2023-04-29T04:30:46;5.00;5.00;4.00
76049;PMS7003;64967;50.234;19.224;2023-04-29T04:33:13;7.00;5.75;4.00
76049;PMS7003;64967;50.234;19.224;2023-04-29T04:35:41;5.75;5.50;5.00
76049;PMS7003;64967;50.234;19.224;2023-04-29T04:38:08;2.25;2.25;2.25
76049;PMS7003;64967;50.234;19.224;2023-04-29T04:40:39;9.25;6.50;5.00
76049;PMS7003;64967;50.234;19.224;2023-04-29T04:43:07;7.50;6.00;4.25
76049;PMS7003;64967;50.234;19.224;2023-04-29T04:45:34;6.25;5.50;5.00
76049;PMS7003;64967;50.234;19.224;2023-04-29T04:48:02;5.75;4.00;3.50
76049;PMS7003;64967;50.234;19.224;2023-04-29T04:50:29;6.25;5.75;4.00
76049;PMS7003;64967;50.234;19.224;2023-04-29T04:52:56;3.75;3.00;3.00
76049;PMS7003;64967;50.234;19.224;2023-04-29T04:55:23;4.50;4.00;3.00
76049;PMS7003;64967;50.234;19.224;2023-04-29T04:57:51;3.00;3.00;2.75
76049;PMS7003;64967;50.234;19.224;2023-04-29T05:00:18;12.00;9.50;6.50
76049;PMS7003;64967;50.234;19.224;2023-04-29T05:02:45;9.50;8.75;6.00
76049;PMS7003;64967;50.234;19.224;2023-04-29T05:05:12;5.00;4.75;4.00
76049;PMS7003;64967;50.234;19.224;2023-04-29T05:07:39;5.00;5.00;4.25
76049;PMS7003;64967;50.234;19.224;2023-04-29T05:10:06;4.25;4.00;3.50
76049;PMS7003;64967;50.234;19.224;2023-04-29T05:12:34;4.75;4.75;4.00
76049;PMS7003;64967;50.234;19.224;2023-04-29T05:15:01;6.25;5.25;4.00
76049;PMS7003;64967;50.234;19.224;2023-04-29T05:17:29;5.00;4.00;3.75
76049;PMS7003;64967;50.234;19.224;2023-04-29T05:19:56;7.50;4.00;3.00
76049;PMS7003;64967;50.234;19.224;2023-04-29T05:22:23;5.25;5.00;3.00
76049;PMS7003;64967;50.234;19.224;2023-04-29T05:24:50;4.00;4.00;3.75
76049;PMS7003;64967;50.234;19.224;2023-04-29T05:27:18;5.25;4.00;3.75
76049;PMS7003;64967;50.234;19.224;2023-04-29T05:29:45;5.00;3.75;3.50
76049;PMS7003;64967;50.234;19.224;2023-04-29T05:32:12;4.75;4.75;4.00
76049;PMS7003;64967;50.234;19.224;2023-04-29T05:34:40;5.00;4.00;3.00
76049;PMS7003;64967;50.234;19.224;2023-04-29T05:37:07;5.25;4.50;4.00
76049;PMS7003;64967;50.234;19.224;2023-04-29T05:39:34;4.00;3.25;3.00
76049;PMS7003;64967;50.234;19.224;2023-04-29T05:42:00;4.00;4.00;3.00
76049;PMS7003;64967;50.234;19.224;2023-04-29T05:44:28;4.00;3.75;3.25
76049;PMS7003;64967;50.234;19.224;2023-04-29T05:46:55;2.75;2.75;2.25
76049;PMS7003;64967;50.234;19.224;2023-04-29T05:49:22;4.00;4.00;3.00
76049;PMS7003;64967;50.234;19.224;2023-04-29T05:51:49;6.00;4.50;4.00
76049;PMS7003;64967;50.234;19.224;2023-04-29T05:54:16;6.00;4.00;3.00
76049;PMS7003;64967;50.234;19.224;2023-04-29T05:56:43;4.25;4.00;3.00
76049;PMS7003;64967;50.234;19.224;2023-04-29T05:59:10;6.00;3.50;3.00
76049;PMS7003;64967;50.234;19.224;2023-04-29T06:01:37;3.25;3.00;3.00
76049;PMS7003;64967;50.234;19.224;2023-04-29T06:04:04;5.75;5.00;4.25
76049;PMS7003;64967;50.234;19.224;2023-04-29T06:06:31;6.00;5.00;4.00
76049;PMS7003;64967;50.234;19.224;2023-04-29T06:08:59;8.50;6.25;5.75
76049;PMS7003;64967;50.234;19.224;2023-04-29T06:11:26;9.25;8.00;6.00
76049;PMS7003;64967;50.234;19.224;2023-04-29T06:13:53;6.50;5.50;4.00
76049;PMS7003;64967;50.234;19.224;2023-04-29T06:16:20;5.00;5.00;4.50
76049;PMS7003;64967;50.234;19.224;2023-04-29T06:18:47;5.00;4.75;4.00
76049;PMS7003;64967;50.234;19.224;2023-04-29T06:21:14;4.00;4.00;3.25
76049;PMS7003;64967;50.234;19.224;2023-04-29T06:23:41;4.75;4.00;3.00
76049;PMS7003;64967;50.234;19.224;2023-04-29T06:26:08;3.75;3.75;3.00
76049;PMS7003;64967;50.234;19.224;2023-04-29T06:28:35;6.25;6.00;4.50
76049;PMS7003;64967;50.234;19.224;2023-04-29T06:31:02;4.50;4.00;3.00
76049;PMS7003;64967;50.234;19.224;2023-04-29T06:33:29;5.00;4.50;4.00
76049;PMS7003;64967;50.234;19.224;2023-04-29T06:35:56;4.75;3.75;3.00
76049;PMS7003;64967;50.234;19.224;2023-04-29T06:38:23;3.50;3.50;3.00
76049;PMS7003;64967;50.234;19.224;2023-04-29T06:40:50;5.00;4.00;3.00
76049;PMS7003;64967;50.234;19.224;2023-04-29T06:43:17;11.50;9.75;6.50
76049;PMS7003;64967;50.234;19.224;2023-04-29T06:45:45;6.00;6.00;5.00
76049;PMS7003;64967;50.234;19.224;2023-04-29T06:48:12;10.25;8.50;7.25
76049;PMS7003;64967;50.234;19.224;2023-04-29T06:50:47;17.25;13.00;10.00
76049;PMS7003;64967;50.234;19.224;2023-04-29T06:53:15;21.75;19.50;13.00
76049;PMS7003;64967;50.234;19.224;2023-04-29T06:55:42;21.00;17.75;11.00
76049;PMS7003;64967;50.234;19.224;2023-04-29T06:58:09;17.25;13.00;9.00
76049;PMS7003;64967;50.234;19.224;2023-04-29T07:00:36;10.75;10.75;9.00
76049;PMS7003;64967;50.234;19.224;2023-04-29T07:03:03;15.25;14.25;10.25
76049;PMS7003;64967;50.234;19.224;2023-04-29T07:05:30;19.50;17.00;12.00
76049;PMS7003;64967;50.234;19.224;2023-04-29T07:07:57;20.00;17.75;13.50
76049;PMS7003;64967;50.234;19.224;2023-04-29T07:10:24;27.50;21.50;15.00
76049;PMS7003;64967;50.234;19.224;2023-04-29T07:12:52;20.00;16.00;13.00
76049;PMS7003;64967;50.234;19.224;2023-04-29T07:15:19;14.25;13.25;8.25
76049;PMS7003;64967;50.234;19.224;2023-04-29T07:17:46;13.25;12.00;10.00
76049;PMS7003;64967;50.234;19.224;2023-04-29T07:20:13;8.25;8.00;6.25
76049;PMS7003;64967;50.234;19.224;2023-04-29T07:22:40;11.25;9.00;6.00
76049;PMS7003;64967;50.234;19.224;2023-04-29T07:25:07;6.50;6.00;4.75
76049;PMS7003;64967;50.234;19.224;2023-04-29T07:27:34;6.50;4.75;3.75
76049;PMS7003;64967;50.234;19.224;2023-04-29T07:30:01;3.50;3.50;3.00
76049;PMS7003;64967;50.234;19.224;2023-04-29T07:32:29;3.25;3.00;3.00
76049;PMS7003;64967;50.234;19.224;2023-04-29T07:34:59;4.00;3.00;3.00
76049;PMS7003;64967;50.234;19.224;2023-04-29T07:37:26;3.50;3.50;3.00
76049;PMS7003;64967;50.234;19.224;2023-04-29T07:39:53;2.75;2.50;2.00
76049;PMS7003;64967;50.234;19.224;2023-04-29T07:42:20;3.50;3.50;3.00
76049;PMS7003;64967;50.234;19.224;2023-04-29T07:44:47;4.00;4.00;3.50
76049;PMS7003;64967;50.234;19.224;2023-04-29T07:47:13;4.75;4.75;4.00
76049;PMS7003;64967;50.234;19.224;2023-04-29T07:49:40;4.00;4.00;3.50
76049;PMS7003;64967;50.234;19.224;2023-04-29T07:52:08;5.00;4.75;3.00
76049;PMS7003;64967;50.234;19.224;2023-04-29T07:54:35;3.00;3.00;3.00
76049;PMS7003;64967;50.234;19.224;2023-04-29T07:57:02;4.25;3.00;3.00
76049;PMS7003;64967;50.234;19.224;2023-04-29T07:59:30;3.25;3.00;2.50
76049;PMS7003;64967;50.234;19.224;2023-04-29T08:01:57;3.00;2.25;2.00
76049;PMS7003;64967;50.234;19.224;2023-04-29T08:04:25;3.75;3.75;3.00
76049;PMS7003;64967;50.234;19.224;2023-04-29T08:06:52;5.75;4.75;4.00
76049;PMS7003;64967;50.234;19.224;2023-04-29T08:09:19;3.50;3.00;2.00
76049;PMS7003;64967;50.234;19.224;2023-04-29T08:11:46;6.00;5.50;4.00
76049;PMS7003;64967;50.234;19.224;2023-04-29T08:14:13;2.00;2.00;2.00
76049;PMS7003;64967;50.234;19.224;2023-04-29T08:16:40;11.50;8.50;6.50
76049;PMS7003;64967;50.234;19.224;2023-04-29T08:19:07;8.75;6.00;5.00
76049;PMS7003;64967;50.234;19.224;2023-04-29T08:21:34;8.50;6.00;5.00
76049;PMS7003;64967;50.234;19.224;2023-04-29T08:24:01;7.75;6.00;5.00
76049;PMS7003;64967;50.234;19.224;2023-04-29T08:26:29;6.25;4.75;3.25
76049;PMS7003;64967;50.234;19.224;2023-04-29T08:28:55;6.00;5.75;4.75
76049;PMS7003;64967;50.234;19.224;2023-04-29T08:31:22;7.25;7.00;5.50
76049;PMS7003;64967;50.234;19.224;2023-04-29T08:33:49;7.25;6.50;5.50
76049;PMS7003;64967;50.234;19.224;2023-04-29T08:36:16;5.50;5.50;4.75
76049;PMS7003;64967;50.234;19.224;2023-04-29T08:38:43;5.00;4.75;4.00
76049;PMS7003;64967;50.234;19.224;2023-04-29T08:41:10;4.75;3.00;3.00
76049;PMS7003;64967;50.234;19.224;2023-04-29T08:43:40;9.00;7.00;6.00
76049;PMS7003;64967;50.234;19.224;2023-04-29T08:46:07;6.00;6.00;5.00
76049;PMS7003;64967;50.234;19.224;2023-04-29T08:48:36;7.00;6.00;5.50
76049;PMS7003;64967;50.234;19.224;2023-04-29T08:51:03;7.00;5.50;5.00
76049;PMS7003;64967;50.234;19.224;2023-04-29T08:53:31;6.25;6.00;5.00
76049;PMS7003;64967;50.234;19.224;2023-04-29T08:56:02;13.00;11.00;8.25
76049;PMS7003;64967;50.234;19.224;2023-04-29T08:58:35;15.00;13.00;10.75
76049;PMS7003;64967;50.234;19.224;2023-04-29T09:01:06;10.75;10.25;7.75
76049;PMS7003;64967;50.234;19.224;2023-04-29T09:03:46;7.00;7.00;6.00
76049;PMS7003;64967;50.234;19.224;2023-04-29T09:06:20;11.75;10.50;8.75
76049;PMS7003;64967;50.234;19.224;2023-04-29T09:08:47;9.00;8.75;7.75
76049;PMS7003;64967;50.234;19.224;2023-04-29T09:11:15;8.50;7.00;6.00
76049;PMS7003;64967;50.234;19.224;2023-04-29T09:13:42;21.00;14.75;10.50
76049;PMS7003;64967;50.234;19.224;2023-04-29T09:16:10;12.50;10.00;8.00
76049;PMS7003;64967;50.234;19.224;2023-04-29T09:18:45;5.75;5.75;4.50
76049;PMS7003;64967;50.234;19.224;2023-04-29T09:21:32;7.25;7.00;5.50
76049;PMS7003;64967;50.234;19.224;2023-04-29T09:23:59;13.50;12.25;8.75
76049;PMS7003;64967;50.234;19.224;2023-04-29T09:26:46;11.50;10.00;8.25
76049;PMS7003;64967;50.234;19.224;2023-04-29T09:29:15;9.00;7.75;6.75
76049;PMS7003;64967;50.234;19.224;2023-04-29T09:31:44;6.00;5.00;4.25
76049;PMS7003;64967;50.234;19.224;2023-04-29T09:34:11;5.75;5.25;4.50
76049;PMS7003;64967;50.234;19.224;2023-04-29T09:36:40;7.00;7.00;6.00
76049;PMS7003;64967;50.234;19.224;2023-04-29T09:39:16;8.33;7.00;5.00
76049;PMS7003;64967;50.234;19.224;2023-04-29T09:44:21;4.00;4.00;4.00
76049;PMS7003;64967;50.234;19.224;2023-04-29T09:47:13;4.00;4.00;3.67
76049;PMS7003;64967;50.234;19.224;2023-04-29T09:49:41;6.67;4.00;3.67
76049;PMS7003;64967;50.234;19.224;2023-04-29T09:52:12;4.67;3.67;2.67
76049;PMS7003;64967;50.234;19.224;2023-04-29T09:54:40;5.33;5.00;4.33
76049;PMS7003;64967;50.234;19.224;2023-04-29T09:57:10;5.00;4.67;4.00
76049;PMS7003;64967;50.234;19.224;2023-04-29T09:59:38;4.67;4.67;4.00
76049;PMS7003;64967;50.234;19.224;2023-04-29T10:04:45;6.33;6.00;5.00
76049;PMS7003;64967;50.234;19.224;2023-04-29T10:07:20;7.67;7.67;6.33
76049;PMS7003;64967;50.234;19.224;2023-04-29T10:09:48;5.67;5.00;4.00
76049;PMS7003;64967;50.234;19.224;2023-04-29T10:12:15;4.33;4.33;4.00
76049;PMS7003;64967;50.234;19.224;2023-04-29T10:14:48;4.33;4.00;3.33
76049;PMS7003;64967;50.234;19.224;2023-04-29T10:17:27;5.33;4.33;3.33
76049;PMS7003;64967;50.234;19.224;2023-04-29T10:20:03;7.00;7.00;6.00
76049;PMS7003;64967;50.234;19.224;2023-04-29T10:25:14;4.00;4.00;3.00
76049;PMS7003;64967;50.234;19.224;2023-04-29T10:27:43;4.00;3.67;3.00
76049;PMS7003;64967;50.234;19.224;2023-04-29T10:30:11;9.67;9.67;8.33
76049;PMS7003;64967;50.234;19.224;2023-04-29T10:32:39;10.00;8.00;6.00
76049;PMS7003;64967;50.234;19.224;2023-04-29T10:35:17;6.00;5.00;4.50
76049;PMS7003;64967;50.234;19.224;2023-04-29T10:37:46;5.33;5.00;4.00
76049;PMS7003;64967;50.234;19.224;2023-04-29T10:40:19;3.33;3.33;3.00
76049;PMS7003;64967;50.234;19.224;2023-04-29T10:42:50;3.67;3.67;3.00
76049;PMS7003;64967;50.234;19.224;2023-04-29T10:45:19;11.00;8.00;6.00
76049;PMS7003;64967;50.234;19.224;2023-04-29T10:53:15;5.25;4.50;4.00
76049;PMS7003;64967;50.234;19.224;2023-04-29T10:55:46;7.50;7.50;6.00
76049;PMS7003;64967;50.234;19.224;2023-04-29T11:01:04;5.25;5.00;4.75
76049;PMS7003;64967;50.234;19.224;2023-04-29T11:03:52;7.50;6.00;5.00
76049;PMS7003;64967;50.234;19.224;2023-04-29T11:06:37;5.00;5.00;4.00
76049;PMS7003;64967;50.234;19.224;2023-04-29T11:09:08;7.00;5.50;5.00
76049;PMS7003;64967;50.234;19.224;2023-04-29T11:11:43;4.00;4.00;3.00
76049;PMS7003;64967;50.234;19.224;2023-04-29T11:14:13;4.00;3.00;3.00
76049;PMS7003;64967;50.234;19.224;2023-04-29T11:16:48;3.00;3.00;3.00
76049;PMS7003;64967;50.234;19.224;2023-04-29T11:19:18;3.00;3.00;3.00
76049;PMS7003;64967;50.234;19.224;2023-04-29T11:21:45;5.75;5.00;5.00
76049;PMS7003;64967;50.234;19.224;2023-04-29T11:24:13;5.75;5.00;4.00
76049;PMS7003;64967;50.234;19.224;2023-04-29T11:26:43;4.25;2.75;2.00
76049;PMS7003;64967;50.234;19.224;2023-04-29T11:29:11;6.25;6.00;5.00
76049;PMS7003;64967;50.234;19.224;2023-04-29T11:31:39;4.75;4.75;4.25
76049;PMS7003;64967;50.234;19.224;2023-04-29T11:34:06;5.25;5.00;4.75
76049;PMS7003;64967;50.234;19.224;2023-04-29T11:36:33;5.00;4.25;3.50
76049;PMS7003;64967;50.234;19.224;2023-04-29T11:39:02;7.00;6.00;6.00
76049;PMS7003;64967;50.234;19.224;2023-04-29T11:41:30;5.50;5.25;4.75
76049;PMS7003;64967;50.234;19.224;2023-04-29T11:43:58;8.25;7.50;6.25
76049;PMS7003;64967;50.234;19.224;2023-04-29T11:46:25;7.00;7.00;5.50
76049;PMS7003;64967;50.234;19.224;2023-04-29T11:48:56;5.00;4.75;4.00
76049;PMS7003;64967;50.234;19.224;2023-04-29T11:51:25;6.00;4.50;4.00
76049;PMS7003;64967;50.234;19.224;2023-04-29T11:53:53;5.75;5.75;3.50
76049;PMS7003;64967;50.234;19.224;2023-04-29T11:56:23;3.25;3.00;3.00
76049;PMS7003;64967;50.234;19.224;2023-04-29T11:58:54;4.00;4.00;4.00
76049;PMS7003;64967;50.234;19.224;2023-04-29T12:01:22;6.00;5.75;5.00
76049;PMS7003;64967;50.234;19.224;2023-04-29T12:03:55;7.00;7.00;6.00
76049;PMS7003;64967;50.234;19.224;2023-04-29T12:06:28;5.00;4.50;4.00
76049;PMS7003;64967;50.234;19.224;2023-04-29T12:08:57;8.50;8.00;6.50
76049;PMS7003;64967;50.234;19.224;2023-04-29T12:11:24;8.75;8.75;7.50
76049;PMS7003;64967;50.234;19.224;2023-04-29T12:13:52;9.00;9.00;8.00
76049;PMS7003;64967;50.234;19.224;2023-04-29T12:16:20;8.75;7.25;6.75
76049;PMS7003;64967;50.234;19.224;2023-04-29T12:18:52;12.75;10.00;8.00
76049;PMS7003;64967;50.234;19.224;2023-04-29T12:21:22;8.25;8.00;6.25
76049;PMS7003;64967;50.234;19.224;2023-04-29T12:23:50;6.00;5.50;4.50
76049;PMS7003;64967;50.234;19.224;2023-04-29T12:26:18;6.75;6.50;5.75
76049;PMS7003;64967;50.234;19.224;2023-04-29T12:28:47;10.00;8.25;6.75
76049;PMS7003;64967;50.234;19.224;2023-04-29T12:31:14;10.50;9.00;7.25
76049;PMS7003;64967;50.234;19.224;2023-04-29T12:33:42;7.75;7.50;7.00
76049;PMS7003;64967;50.234;19.224;2023-04-29T12:36:15;8.50;8.00;6.50
76049;PMS7003;64967;50.234;19.224;2023-04-29T12:38:44;9.33;7.33;6.00
76049;PMS7003;64967;50.234;19.224;2023-04-29T12:41:12;5.33;5.00;4.00
76049;PMS7003;64967;50.234;19.224;2023-04-29T12:43:42;8.00;8.00;7.50
76049;PMS7003;64967;50.234;19.224;2023-04-29T12:46:10;4.00;4.00;3.00
76049;PMS7003;64967;50.234;19.224;2023-04-29T12:48:40;3.00;2.00;2.00
76049;PMS7003;64967;50.234;19.224;2023-04-29T12:51:09;5.67;5.00;4.00
76049;PMS7003;64967;50.234;19.224;2023-04-29T12:53:37;6.00;5.00;4.00
76049;PMS7003;64967;50.234;19.224;2023-04-29T12:56:05;6.00;4.00;4.00
76049;PMS7003;64967;50.234;19.224;2023-04-29T12:58:32;3.00;2.67;2.00
76049;PMS7003;64967;50.234;19.224;2023-04-29T13:01:00;3.00;3.00;3.00
76049;PMS7003;64967;50.234;19.224;2023-04-29T13:03:27;3.00;3.00;3.00
76049;PMS7003;64967;50.234;19.224;2023-04-29T13:05:54;4.00;4.00;4.00
76049;PMS7003;64967;50.234;19.224;2023-04-29T13:08:22;6.67;6.00;4.67
76049;PMS7003;64967;50.234;19.224;2023-04-29T13:10:49;5.33;5.33;4.00
76049;PMS7003;64967;50.234;19.224;2023-04-29T13:13:17;3.00;3.00;2.67
76049;PMS7003;64967;50.234;19.224;2023-04-29T13:15:44;4.00;4.00;4.00
76049;PMS7003;64967;50.234;19.224;2023-04-29T13:18:10;3.00;2.00;1.67
76049;PMS7003;64967;50.234;19.224;2023-04-29T13:20:38;3.00;3.00;3.00
76049;PMS7003;64967;50.234;19.224;2023-04-29T13:23:08;2.33;2.00;2.00
76049;PMS7003;64967;50.234;19.224;2023-04-29T13:25:35;1.33;0.67;0.00
76049;PMS7003;64967;50.234;19.224;2023-04-29T13:28:02;1.00;1.00;1.00
76049;PMS7003;64967;50.234;19.224;2023-04-29T13:30:31;1.00;1.00;1.00
76049;PMS7003;64967;50.234;19.224;2023-04-29T13:32:58;1.33;1.00;0.00
76049;PMS7003;64967;50.234;19.224;2023-04-29T13:35:36;3.00;3.00;2.00
76049;PMS7003;64967;50.234;19.224;2023-04-29T13:38:06;1.00;1.00;1.00
76049;PMS7003;64967;50.234;19.224;2023-04-29T13:40:34;0.00;0.00;0.00
76049;PMS7003;64967;50.234;19.224;2023-04-29T13:43:11;0.00;0.00;0.00
76049;PMS7003;64967;50.234;19.224;2023-04-29T13:45:43;1.00;1.00;1.00
76049;PMS7003;64967;50.234;19.224;2023-04-29T13:48:13;1.00;1.00;1.00
76049;PMS7003;64967;50.234;19.224;2023-04-29T13:51:00;1.00;1.00;1.00
76049;PMS7003;64967;50.234;19.224;2023-04-29T13:53:30;4.00;3.00;2.00
76049;PMS7003;64967;50.234;19.224;2023-04-29T13:56:00;2.00;2.00;2.00
76049;PMS7003;64967;50.234;19.224;2023-04-29T13:58:47;3.67;3.67;3.00
76049;PMS7003;64967;50.234;19.224;2023-04-29T14:01:18;2.00;2.00;1.00
76049;PMS7003;64967;50.234;19.224;2023-04-29T14:04:05;1.33;1.33;1.33
76049;PMS7003;64967;50.234;19.224;2023-04-29T14:06:32;2.00;2.00;1.00
76049;PMS7003;64967;50.234;19.224;2023-04-29T14:09:00;2.67;2.67;2.00
76049;PMS7003;64967;50.234;19.224;2023-04-29T14:11:29;2.00;2.00;2.00
76049;PMS7003;64967;50.234;19.224;2023-04-29T14:13:56;3.00;3.00;3.00
76049;PMS7003;64967;50.234;19.224;2023-04-29T14:16:23;1.00;1.00;1.00
76049;PMS7003;64967;50.234;19.224;2023-04-29T14:18:50;2.00;2.00;2.00
76049;PMS7003;64967;50.234;19.224;2023-04-29T14:21:17;2.00;2.00;2.00
76049;PMS7003;64967;50.234;19.224;2023-04-29T14:23:44;2.67;2.67;2.33
76049;PMS7003;64967;50.234;19.224;2023-04-29T14:26:11;4.00;4.00;3.00
76049;PMS7003;64967;50.234;19.224;2023-04-29T14:28:41;2.67;2.33;2.00
76049;PMS7003;64967;50.234;19.224;2023-04-29T14:31:08;2.00;2.00;1.33
76049;PMS7003;64967;50.234;19.224;2023-04-29T14:33:36;2.67;1.33;1.00
76049;PMS7003;64967;50.234;19.224;2023-04-29T14:36:03;4.25;2.50;2.25
76049;PMS7003;64967;50.234;19.224;2023-04-29T14:38:30;2.00;2.00;1.00
76049;PMS7003;64967;50.234;19.224;2023-04-29T14:40:57;4.25;3.50;2.75
76049;PMS7003;64967;50.234;19.224;2023-04-29T14:43:24;3.00;3.00;2.00
76049;PMS7003;64967;50.234;19.224;2023-04-29T14:45:51;2.50;2.25;2.00